Main page
METAR-TAF:

METAR-TAF

Airports :

Kingston/Norman Rogers Airport

Kingston, Ontario, Canada

latitude: 44-13N, longitude: 076-36W, elevation: 305 ft

Current weather observation

The report was made 2 hours and 28 minutes ago, at 03:00 UTC
Wind 3 mph from the West, varying between South and West/Northwest
Temperature 72°F
Humidity 83%
Pressure 30.06 in. Hg
Visibility: 15 miles
Few clouds at a height of 6000 ft
Broken clouds at a height of 25000 ft

METAR: CYGK 180300Z 26003KT 170V290 15SM FEW060 BKN250 22/19 A3006 RMK SC2CI3 LAST STFD OBS/NXT 181000Z SLP180 DENSITY ALT 1000FT

Time: 01:28 (05:28 UTC)

Forecast

The report was made 9 hours and 48 minutes ago, at 19:40 UTC
Forecast valid from 17 at 20 UTC to 18 at 03 UTC
Wind 12 mph from the South
Visibility: 6 miles
Few clouds at a height of 3000 ft
Broken clouds at a height of 25000 ft

TAF: CYGK 171940Z 1720/1803 18010KT P6SM FEW030 BKN250 RMK NXT FCST BY 181200Z

Weather observations and forecasts of more than 4000 airports (METAR and TAF reports).

The available stations are represented by yellow and red dots on the map.

Hover mouse over dot to see the name of the station.

Then click to see weather observations and forecasts.

To change the map : click on the green buttons with a black cross to zoom in, on the green button with a dash to zoom out, or on the green arrows for adjacent maps.


METAR-TAF: